createdAt,value
2023-01-02T00:02:36.031Z,1.95
2023-01-02T00:05:08.199Z,2.00
2023-01-02T00:07:35.698Z,2.05
2023-01-02T00:12:55.465Z,1.67
2023-01-02T00:15:34.763Z,1.90
2023-01-02T00:18:11.921Z,1.90
2023-01-02T00:21:16.530Z,1.85
2023-01-02T00:23:45.360Z,2.13
2023-01-02T00:29:30.414Z,2.10
2023-01-02T00:32:07.450Z,1.90
2023-01-02T00:34:43.321Z,1.92
2023-01-02T00:37:31.656Z,2.33
2023-01-02T00:40:03.306Z,2.08
2023-01-02T00:42:31.700Z,1.90
2023-01-02T00:45:04.716Z,1.90
2023-01-02T00:47:41.229Z,1.83
2023-01-02T00:50:08.955Z,2.33
2023-01-02T00:52:36.168Z,1.98
2023-01-02T00:55:08.292Z,1.85
2023-01-02T01:00:28.013Z,2.10
2023-01-02T01:03:04.231Z,1.98
2023-01-02T01:05:31.682Z,2.03
2023-01-02T01:08:04.395Z,2.08
2023-01-02T01:10:48.007Z,1.90
2023-01-02T01:13:29.170Z,2.08
2023-01-02T01:16:36.588Z,1.90
2023-01-02T01:19:56.858Z,2.00
2023-01-02T01:22:40.619Z,1.70
2023-01-02T01:25:17.587Z,1.90
2023-01-02T01:27:57.007Z,2.10
2023-01-02T01:30:26.131Z,1.80
2023-01-02T01:33:06.978Z,2.15
2023-01-02T01:35:52.583Z,1.80
2023-01-02T01:38:38.327Z,1.90
2023-01-02T01:41:29.662Z,2.05
2023-01-02T01:46:56.088Z,2.13
2023-01-02T01:49:34.062Z,1.90
2023-01-02T01:52:10.202Z,1.80
2023-01-02T01:54:41.235Z,1.98
2023-01-02T01:57:16.272Z,1.83
2023-01-02T01:59:47.821Z,1.92
2023-01-02T02:02:24.524Z,1.83
2023-01-02T02:05:11.181Z,1.80
2023-01-02T02:07:53.206Z,1.92
2023-01-02T02:10:24.249Z,1.50
2023-01-02T02:16:08.347Z,1.70
2023-01-02T02:18:49.969Z,1.80
2023-01-02T02:21:47.503Z,1.67
2023-01-02T02:27:54.788Z,2.00
2023-01-02T02:30:23.932Z,1.73
2023-01-02T02:32:59.549Z,1.80
2023-01-02T02:36:05.411Z,1.70
2023-01-02T02:38:59.060Z,1.20
2023-01-02T02:41:29.588Z,1.50
2023-01-02T02:44:16.245Z,1.60
2023-01-02T02:47:16.286Z,1.50
2023-01-02T02:50:07.147Z,1.40
2023-01-02T02:55:40.086Z,1.40
2023-01-02T02:58:09.728Z,1.48
2023-01-02T03:00:51.593Z,1.23
2023-01-02T03:03:32.449Z,1.40
2023-01-02T03:06:07.445Z,1.50
2023-01-02T03:08:51.973Z,1.65
2023-01-02T03:11:19.512Z,1.30
2023-01-02T03:14:02.467Z,1.13
2023-01-02T03:20:20.263Z,1.47
2023-01-02T03:30:58.124Z,1.30
2023-01-02T03:37:19.744Z,1.98
2023-01-02T03:39:50.223Z,1.67
2023-01-02T03:42:25.315Z,1.80
2023-01-02T03:45:12.616Z,2.00
2023-01-02T03:48:05.016Z,2.00
2023-01-02T03:50:40.133Z,1.92
2023-01-02T03:53:31.244Z,1.95
2023-01-02T03:56:14.590Z,1.90
2023-01-02T03:58:52.287Z,2.07
2023-01-02T04:04:53.367Z,1.88
2023-01-02T04:07:39.192Z,1.80
2023-01-02T04:10:08.338Z,1.70
2023-01-02T04:12:39.423Z,1.67
2023-01-02T04:15:21.297Z,1.60
2023-01-02T04:17:58.791Z,1.60
2023-01-02T04:20:38.965Z,1.60
2023-01-02T04:23:29.073Z,1.40
2023-01-02T04:26:06.588Z,1.50
2023-01-02T04:28:39.004Z,1.30
2023-01-02T04:31:12.707Z,1.45
2023-01-02T04:33:51.629Z,1.48
2023-01-02T04:36:19.538Z,1.40
2023-01-02T04:38:49.143Z,1.50
2023-01-02T04:41:21.427Z,1.60
2023-01-02T04:43:52.385Z,1.40
2023-01-02T04:46:19.775Z,1.50
2023-01-02T04:48:50.449Z,1.30
2023-01-02T04:51:48.081Z,1.10
2023-01-02T04:54:36.594Z,1.10
2023-01-02T04:57:29.393Z,1.17
2023-01-02T05:02:41.857Z,1.10
2023-01-02T05:05:10.628Z,1.05
2023-01-02T05:07:50.328Z,1.00
2023-01-02T05:10:17.644Z,1.00
2023-01-02T05:12:44.975Z,0.90
2023-01-02T05:15:35.525Z,1.03
2023-01-02T05:18:06.102Z,1.00
2023-01-02T05:20:33.594Z,1.05
2023-01-02T05:23:30.094Z,1.13
2023-01-02T05:26:10.297Z,0.90
2023-01-02T05:28:40.297Z,0.80
2023-01-02T05:31:11.927Z,0.75
2023-01-02T05:33:40.363Z,0.80
2023-01-02T05:36:11.378Z,0.80
2023-01-02T05:38:42.284Z,0.80
2023-01-02T05:41:13.556Z,0.80
2023-01-02T05:43:41.097Z,0.80
2023-01-02T05:49:03.111Z,0.70
2023-01-02T05:51:30.480Z,0.70
2023-01-02T05:54:12.182Z,0.90
2023-01-02T05:56:41.497Z,0.60
2023-01-02T05:59:23.424Z,0.60
2023-01-02T06:01:58.269Z,1.30
2023-01-02T06:04:25.738Z,0.80
2023-01-02T06:06:57.464Z,0.80
2023-01-02T06:09:32.748Z,0.70
2023-01-02T06:12:01.121Z,0.80
2023-01-02T06:14:30.445Z,0.57
2023-01-02T06:17:21.440Z,0.80
2023-01-02T06:19:56.656Z,1.00
2023-01-02T06:22:30.416Z,0.70
2023-01-02T06:25:05.848Z,0.60
2023-01-02T06:27:36.087Z,0.68
2023-01-02T06:30:03.460Z,0.60
2023-01-02T06:32:30.964Z,0.60
2023-01-02T06:35:06.314Z,0.70
2023-01-02T06:37:34.109Z,0.80
2023-01-02T06:40:16.691Z,0.80
2023-01-02T06:42:45.148Z,0.50
2023-01-02T06:45:12.820Z,0.70
2023-01-02T06:47:41.386Z,0.68
2023-01-02T06:50:10.189Z,0.70
2023-01-02T06:52:37.664Z,0.55
2023-01-02T06:55:14.473Z,0.68
2023-01-02T06:57:44.362Z,0.80
2023-01-02T07:02:57.494Z,0.70
2023-01-02T07:05:25.279Z,0.60
2023-01-02T07:08:02.254Z,0.57
2023-01-02T07:10:33.373Z,0.63
2023-01-02T07:13:00.936Z,0.60
2023-01-02T07:15:32.638Z,0.50
2023-01-02T07:18:07.241Z,0.60
2023-01-02T07:20:38.833Z,0.50
2023-01-02T07:23:07.227Z,0.50
2023-01-02T07:25:44.228Z,0.60
2023-01-02T07:28:12.432Z,0.45
2023-01-02T07:30:40.793Z,0.50
2023-01-02T07:33:16.282Z,0.50
2023-01-02T07:35:48.289Z,0.57
2023-01-02T07:38:20.810Z,0.40
2023-01-02T07:40:48.206Z,0.50
2023-01-02T07:43:24.337Z,0.50
2023-01-02T07:46:03.755Z,0.40
2023-01-02T07:48:36.080Z,0.40
2023-01-02T07:51:15.811Z,0.50
2023-01-02T07:56:41.538Z,0.47
2023-01-02T07:59:09.252Z,0.57
2023-01-02T08:01:37.471Z,0.50
2023-01-02T08:04:05.126Z,0.50
2023-01-02T08:06:33.716Z,0.40
2023-01-02T08:09:01.117Z,0.40
2023-01-02T08:11:28.445Z,0.40
2023-01-02T08:13:55.828Z,0.40
2023-01-02T08:16:24.819Z,0.43
2023-01-02T08:18:58.831Z,0.60
2023-01-02T08:21:27.862Z,0.50
2023-01-02T08:23:55.302Z,0.63
2023-01-02T08:26:28.323Z,0.40
2023-01-02T08:32:40.571Z,0.47
2023-01-02T08:35:16.733Z,0.60
2023-01-02T08:38:10.237Z,0.40
2023-01-02T08:40:43.575Z,0.40
2023-01-02T08:43:11.056Z,0.50
2023-01-02T08:49:31.467Z,0.30
2023-01-02T08:52:06.715Z,0.50
2023-01-02T08:54:43.340Z,0.82
2023-01-02T08:57:18.597Z,0.90
2023-01-02T08:59:53.852Z,0.80
2023-01-02T09:02:24.188Z,0.90
2023-01-02T09:10:44.634Z,0.85
2023-01-02T09:13:16.814Z,1.00
2023-01-02T09:15:53.013Z,0.80
2023-01-02T09:22:28.294Z,0.70
2023-01-02T09:27:47.636Z,0.60
2023-01-02T09:30:39.761Z,0.60
2023-01-02T09:33:10.239Z,0.70
2023-01-02T09:35:59.763Z,0.60
2023-01-02T09:38:30.344Z,0.57
2023-01-02T09:40:58.693Z,1.02
2023-01-02T09:43:37.494Z,0.60
2023-01-02T09:46:14.391Z,0.80
2023-01-02T09:48:57.249Z,0.73
2023-01-02T09:51:27.585Z,0.70
2023-01-02T09:53:55.008Z,0.60
2023-01-02T09:56:28.980Z,0.70
2023-01-02T09:59:02.061Z,0.32
2023-01-02T10:01:51.772Z,0.50
2023-01-02T10:04:37.639Z,0.67
2023-01-02T10:07:17.053Z,0.50
2023-01-02T10:09:57.169Z,0.60
2023-01-02T10:12:27.477Z,0.50
2023-01-02T10:15:02.177Z,0.70
2023-01-02T10:17:40.364Z,0.50
2023-01-02T10:24:15.576Z,0.55
2023-01-02T10:27:02.793Z,0.40
2023-01-02T10:29:32.753Z,0.60
2023-01-02T10:32:01.458Z,0.55
2023-01-02T10:34:41.585Z,0.40
2023-01-02T10:37:14.328Z,0.52
2023-01-02T10:39:42.888Z,0.50
2023-01-02T10:42:12.366Z,0.40
2023-01-02T10:44:52.535Z,0.40
2023-01-02T10:47:36.568Z,0.50
2023-01-02T10:50:18.723Z,0.50
2023-01-02T10:53:07.629Z,0.47
2023-01-02T10:55:41.185Z,0.60
2023-01-02T10:58:28.120Z,0.40
2023-01-02T11:01:13.697Z,0.40
2023-01-02T11:03:55.043Z,0.40
2023-01-02T11:06:38.866Z,0.40
2023-01-02T11:09:22.499Z,0.40
2023-01-02T11:11:53.882Z,0.50
2023-01-02T11:14:44.881Z,0.40
2023-01-02T11:17:27.583Z,0.40
2023-01-02T11:19:57.317Z,0.30
2023-01-02T11:22:32.952Z,0.45
2023-01-02T11:25:19.161Z,0.30
2023-01-02T11:27:46.857Z,0.40
2023-01-02T11:30:39.965Z,0.40
2023-01-02T11:33:28.169Z,0.60
2023-01-02T11:36:16.942Z,0.40
2023-01-02T11:38:47.742Z,0.43
2023-01-02T11:42:17.709Z,0.50
2023-01-02T11:45:33.887Z,0.40
2023-01-02T11:48:22.894Z,0.40
2023-01-02T11:51:49.336Z,0.40
2023-01-02T12:01:53.779Z,0.50
2023-01-02T12:04:31.730Z,0.50
2023-01-02T12:07:26.737Z,0.40
2023-01-02T12:10:22.449Z,0.40
2023-01-02T12:13:31.982Z,0.60
2023-01-02T12:16:19.920Z,0.30
2023-01-02T12:19:21.317Z,0.32
2023-01-02T12:22:03.881Z,0.40
2023-01-02T12:25:03.384Z,0.40
2023-01-02T12:28:08.654Z,0.40
2023-01-02T12:31:12.967Z,0.40
2023-01-02T12:38:22.595Z,0.40
2023-01-02T12:41:18.892Z,0.40
2023-01-02T12:43:52.581Z,0.38
2023-01-02T12:46:27.431Z,0.47
2023-01-02T12:49:35.439Z,0.45
2023-01-02T12:56:03.782Z,0.53
2023-01-02T12:59:16.472Z,0.70
2023-01-02T13:09:01.577Z,0.50
2023-01-02T13:12:11.962Z,0.57
2023-01-02T13:15:35.935Z,0.50
2023-01-02T13:19:39.597Z,0.70
2023-01-02T13:22:29.109Z,0.50
2023-01-02T13:24:57.592Z,0.70
2023-01-02T13:27:45.878Z,0.60
2023-01-02T13:31:00.980Z,0.55
2023-01-02T13:33:57.215Z,0.50
2023-01-02T13:36:54.169Z,0.50
2023-01-02T13:39:24.986Z,0.40
2023-01-02T13:45:26.155Z,0.30
2023-01-02T13:48:07.497Z,0.32
2023-01-02T13:50:43.695Z,0.30
2023-01-02T13:53:11.099Z,0.40
2023-01-02T13:56:13.513Z,0.80
2023-01-02T13:58:46.649Z,0.70
2023-01-02T14:01:24.726Z,0.60
2023-01-02T14:04:15.689Z,0.50
2023-01-02T14:13:38.383Z,0.50
2023-01-02T14:19:19.129Z,3.65
2023-01-02T14:21:47.400Z,0.50
2023-01-02T14:24:37.509Z,0.70
2023-01-02T14:27:15.035Z,0.40
2023-01-02T14:29:45.997Z,0.40
2023-01-02T14:32:44.096Z,0.40
2023-01-02T14:35:11.667Z,0.38
2023-01-02T14:37:41.594Z,0.40
2023-01-02T14:40:37.998Z,0.45
2023-01-02T14:54:29.631Z,1.00
2023-01-02T14:57:07.764Z,0.28
2023-01-02T14:59:56.253Z,0.52
2023-01-02T15:02:40.894Z,0.30
2023-01-02T15:05:19.559Z,0.30
2023-01-02T15:08:01.232Z,0.30
2023-01-02T17:48:09.348Z,0.60
2023-01-02T17:51:54.983Z,0.63
2023-01-02T17:54:52.769Z,0.70
2023-01-02T17:57:42.780Z,0.82
2023-01-02T18:01:11.109Z,0.90
2023-01-02T18:04:01.447Z,0.80
2023-01-02T18:14:56.755Z,0.63
2023-01-02T18:17:35.183Z,0.95
2023-01-02T18:20:06.175Z,0.73
2023-01-02T18:22:44.068Z,1.00
2023-01-02T18:25:28.192Z,1.00
2023-01-02T18:39:39.620Z,1.00
2023-01-02T18:42:37.636Z,1.02
2023-01-02T18:45:40.205Z,1.08
2023-01-02T18:48:30.329Z,1.00
2023-01-02T18:51:02.061Z,0.90
2023-01-02T18:54:29.313Z,0.83
2023-01-02T18:57:10.295Z,1.10
2023-01-02T19:04:53.482Z,1.10
2023-01-02T19:14:20.373Z,0.95
2023-01-02T19:17:09.628Z,0.97
2023-01-02T19:19:41.001Z,0.90
2023-01-02T19:22:24.049Z,0.90
2023-01-02T19:25:08.862Z,1.00
2023-01-02T19:27:47.759Z,1.10
2023-01-02T19:30:45.911Z,0.93
2023-01-02T19:34:05.567Z,1.00
2023-01-02T19:37:23.723Z,0.90
2023-01-02T19:49:28.647Z,0.80
2023-01-02T19:52:23.004Z,0.90
2023-01-02T19:55:00.791Z,0.90
2023-01-02T19:57:34.995Z,0.90
2023-01-02T20:00:13.652Z,0.90
2023-01-02T20:02:54.060Z,1.00
2023-01-02T20:05:39.096Z,1.10
2023-01-02T20:08:34.380Z,1.10
2023-01-02T20:12:13.448Z,1.10
2023-01-02T20:14:41.162Z,0.98
2023-01-02T20:17:19.829Z,1.10
2023-01-02T20:19:53.186Z,1.10
2023-01-02T20:22:21.512Z,1.00
2023-01-02T20:24:54.296Z,1.10
2023-01-02T20:27:33.473Z,1.00
2023-01-02T20:30:12.712Z,1.10
2023-01-02T20:32:44.788Z,1.00
2023-01-02T20:35:15.884Z,1.00
2023-01-02T20:37:54.297Z,1.00
2023-01-02T20:40:27.609Z,0.90
2023-01-02T20:43:05.048Z,0.93
2023-01-02T20:45:38.073Z,1.10
2023-01-02T20:48:10.529Z,1.10
2023-01-02T20:50:42.796Z,0.77
2023-01-02T20:53:16.241Z,0.90
2023-01-02T20:55:53.517Z,0.85
2023-01-02T20:58:22.989Z,0.90
2023-01-02T21:00:54.778Z,1.00
2023-01-02T21:03:25.149Z,1.00
2023-01-02T21:05:53.871Z,1.17
2023-01-02T21:08:51.712Z,1.00
2023-01-02T21:11:25.533Z,1.10
2023-01-02T21:13:54.778Z,1.10
2023-01-02T21:16:24.918Z,1.20
2023-01-02T21:18:53.104Z,1.08
2023-01-02T21:21:24.499Z,1.05
2023-01-02T21:23:51.589Z,1.00
2023-01-02T21:26:22.537Z,1.17
2023-01-02T21:28:52.401Z,1.10
2023-01-02T21:31:25.981Z,1.10
2023-01-02T21:33:55.457Z,1.20
2023-01-02T21:36:25.414Z,1.10
2023-01-02T21:38:57.890Z,1.15
2023-01-02T21:41:53.477Z,1.20
2023-01-02T21:44:25.602Z,1.35
2023-01-02T21:46:54.686Z,1.33
2023-01-02T21:49:25.371Z,1.20
2023-01-02T21:51:53.502Z,1.40
2023-01-02T21:54:20.459Z,1.45
2023-01-02T21:56:49.619Z,1.55
2023-01-02T21:59:30.240Z,1.50
2023-01-02T22:01:59.986Z,1.40
2023-01-02T22:04:29.645Z,1.50
2023-01-02T22:09:47.790Z,1.40
2023-01-02T22:12:17.380Z,1.40
2023-01-02T22:14:44.525Z,1.50
2023-01-02T22:17:13.896Z,1.58
2023-01-02T22:19:43.191Z,1.60
2023-01-02T22:22:17.195Z,1.30
2023-01-02T22:24:46.816Z,1.43
2023-01-02T22:27:16.718Z,1.45
2023-01-02T22:32:34.611Z,1.45
2023-01-02T22:35:04.772Z,1.60
2023-01-02T22:37:36.095Z,1.45
2023-01-02T22:40:07.033Z,1.80
2023-01-02T22:43:02.236Z,1.50
2023-01-02T22:45:34.378Z,1.60
2023-01-02T22:48:05.793Z,1.52
2023-01-02T22:50:42.770Z,1.27
2023-01-02T22:53:19.222Z,1.35
2023-01-02T22:55:49.373Z,1.40
2023-01-02T22:58:23.457Z,1.60
2023-01-02T23:01:02.862Z,1.20
2023-01-02T23:03:41.898Z,1.40
2023-01-02T23:06:14.793Z,1.60
2023-01-02T23:08:48.666Z,1.67
2023-01-02T23:11:22.078Z,1.48
2023-01-02T23:13:56.356Z,1.67
2023-01-02T23:16:46.954Z,1.50
2023-01-02T23:19:15.674Z,1.77
2023-01-02T23:21:47.672Z,1.50
2023-01-02T23:24:19.020Z,1.55
2023-01-02T23:26:48.660Z,1.50
2023-01-02T23:29:19.224Z,1.57
2023-01-02T23:31:50.341Z,1.52
2023-01-02T23:34:20.260Z,1.60
2023-01-02T23:36:51.142Z,1.35
2023-01-02T23:39:27.941Z,1.33
2023-01-02T23:41:58.261Z,1.30
2023-01-02T23:44:29.322Z,1.40
2023-01-02T23:47:00.856Z,1.60
2023-01-02T23:49:33.685Z,1.65
2023-01-02T23:52:06.709Z,1.30
2023-01-02T23:54:36.948Z,1.50
2023-01-02T23:57:05.016Z,1.77
2023-01-02T23:59:35.113Z,1.40
